createdAt,value
2023-04-21T00:00:51.741Z,88.42
2023-04-21T00:03:20.375Z,88.59
2023-04-21T00:05:48.333Z,88.35
2023-04-21T00:08:15.703Z,88.44
2023-04-21T00:10:42.986Z,88.19
2023-04-21T00:13:09.946Z,88.35
2023-04-21T00:15:37.035Z,88.11
2023-04-21T00:18:04.011Z,87.93
2023-04-21T00:20:31.537Z,87.50
2023-04-21T00:22:59.124Z,87.74
2023-04-21T00:25:26.112Z,87.97
2023-04-21T00:27:52.848Z,87.98
2023-04-21T00:30:19.651Z,87.88
2023-04-21T00:32:46.462Z,87.83
2023-04-21T00:35:13.652Z,87.81
2023-04-21T00:37:41.550Z,87.77
2023-04-21T00:40:09.325Z,88.06
2023-04-21T00:42:36.074Z,87.77
2023-04-21T00:45:04.818Z,87.32
2023-04-21T00:47:31.894Z,86.96
2023-04-21T00:49:59.625Z,87.25
2023-04-21T00:52:28.042Z,87.32
2023-04-21T00:54:55.756Z,86.83
2023-04-21T00:57:23.048Z,86.36
2023-04-21T00:59:52.511Z,86.52
2023-04-21T01:02:19.719Z,87.20
2023-04-21T01:04:46.662Z,86.99
2023-04-21T01:07:13.437Z,86.19
2023-04-21T01:09:40.477Z,86.83
2023-04-21T01:12:11.819Z,87.16
2023-04-21T01:14:40.430Z,87.44
2023-04-21T01:17:07.891Z,87.75
2023-04-21T01:19:40.297Z,87.80
2023-04-21T01:22:11.001Z,87.60
2023-04-21T01:24:39.685Z,86.83
2023-04-21T01:27:11.507Z,86.98
2023-04-21T01:29:39.407Z,86.65
2023-04-21T01:32:09.101Z,86.28
2023-04-21T01:34:35.937Z,85.80
2023-04-21T01:37:02.732Z,85.27
2023-04-21T01:39:30.081Z,85.37
2023-04-21T01:41:58.028Z,84.81
2023-04-21T01:44:26.137Z,84.45
2023-04-21T01:46:53.338Z,84.45
2023-04-21T01:49:20.540Z,83.12
2023-04-21T01:51:47.441Z,82.80
2023-04-21T01:54:14.675Z,82.09
2023-04-21T01:56:41.574Z,81.14
2023-04-21T01:59:08.482Z,80.91
2023-04-21T02:01:36.267Z,80.78
2023-04-21T02:04:04.677Z,80.72
2023-04-21T02:06:31.623Z,80.55
2023-04-21T02:08:58.505Z,80.16
2023-04-21T02:11:26.043Z,79.16
2023-04-21T02:13:54.245Z,78.96
2023-04-21T02:16:26.071Z,78.88
2023-04-21T02:18:53.739Z,78.63
2023-04-21T02:21:24.422Z,79.04
2023-04-21T02:23:52.078Z,78.45
2023-04-21T02:26:19.687Z,78.23
2023-04-21T02:28:46.970Z,77.98
2023-04-21T02:31:13.872Z,77.92
2023-04-21T02:33:41.443Z,77.60
2023-04-21T02:36:08.532Z,77.38
2023-04-21T02:38:35.539Z,77.84
2023-04-21T02:41:02.551Z,77.63
2023-04-21T02:43:29.245Z,76.67
2023-04-21T02:45:55.961Z,76.70
2023-04-21T02:48:23.149Z,77.08
2023-04-21T02:50:50.771Z,76.75
2023-04-21T02:53:17.577Z,75.97
2023-04-21T02:55:44.414Z,75.94
2023-04-21T02:58:11.163Z,76.57
2023-04-21T03:00:38.078Z,77.08
2023-04-21T03:03:05.246Z,76.86
2023-04-21T03:05:32.037Z,77.00
2023-04-21T03:07:58.871Z,76.95
2023-04-21T03:10:25.735Z,77.95
2023-04-21T03:12:53.585Z,77.81
2023-04-21T03:15:21.181Z,77.69
2023-04-21T03:17:51.982Z,77.99
2023-04-21T03:20:18.747Z,77.94
2023-04-21T03:22:45.488Z,77.94
2023-04-21T03:25:12.506Z,77.99
2023-04-21T03:27:39.319Z,77.84
2023-04-21T03:30:07.140Z,78.21
2023-04-21T03:32:34.070Z,78.01
2023-04-21T03:35:00.911Z,78.93
2023-04-21T03:37:27.638Z,78.79
2023-04-21T03:39:54.375Z,78.90
2023-04-21T03:42:21.050Z,78.63
2023-04-21T03:44:47.681Z,78.55
2023-04-21T03:47:16.059Z,79.16
2023-04-21T03:49:42.746Z,80.72
2023-04-21T03:52:09.603Z,81.43
2023-04-21T03:54:36.498Z,82.02
2023-04-21T03:57:03.242Z,81.79
2023-04-21T03:59:30.511Z,81.23
2023-04-21T04:01:57.232Z,81.07
2023-04-21T04:04:24.103Z,81.24
2023-04-21T04:06:51.027Z,81.21
2023-04-21T04:09:17.841Z,82.21
2023-04-21T04:11:44.690Z,81.52
2023-04-21T04:14:11.455Z,82.13
2023-04-21T04:16:38.375Z,82.82
2023-04-21T04:19:05.228Z,83.00
2023-04-21T04:21:32.574Z,82.90
2023-04-21T04:24:00.443Z,83.18
2023-04-21T04:26:27.391Z,83.77
2023-04-21T04:29:00.343Z,84.00
2023-04-21T04:31:29.302Z,83.83
2023-04-21T04:33:57.042Z,84.12
2023-04-21T04:36:25.085Z,85.03
2023-04-21T04:38:52.143Z,84.42
2023-04-21T04:41:20.868Z,84.90
2023-04-21T04:43:47.673Z,85.33
2023-04-21T04:46:14.474Z,84.77
2023-04-21T04:48:41.364Z,83.46
2023-04-21T04:51:08.212Z,82.91
2023-04-21T04:53:35.041Z,82.30
2023-04-21T04:56:01.837Z,81.99
2023-04-21T04:58:28.634Z,81.51
2023-04-21T05:00:55.382Z,81.67
2023-04-21T05:03:22.447Z,80.69
2023-04-21T05:05:49.589Z,80.37
2023-04-21T05:08:17.986Z,79.46
2023-04-21T05:10:44.984Z,79.75
2023-04-21T05:13:11.680Z,79.17
2023-04-21T05:15:38.487Z,78.23
2023-04-21T05:18:05.368Z,77.55
2023-04-21T05:20:32.116Z,77.36
2023-04-21T05:22:58.856Z,77.59
2023-04-21T05:25:25.681Z,76.60
2023-04-21T05:27:53.166Z,76.61
2023-04-21T05:30:20.150Z,77.14
2023-04-21T05:32:46.893Z,76.18
2023-04-21T05:35:13.710Z,75.41
2023-04-21T05:37:40.504Z,75.15
2023-04-21T05:40:07.852Z,74.06
2023-04-21T05:42:34.762Z,72.96
2023-04-21T05:45:01.668Z,71.61
2023-04-21T05:47:28.472Z,71.84
2023-04-21T05:49:55.675Z,72.33
2023-04-21T05:52:22.598Z,71.55
2023-04-21T05:54:49.415Z,71.96
2023-04-21T05:57:18.938Z,70.22
2023-04-21T05:59:45.812Z,69.15
2023-04-21T06:02:12.925Z,67.89
2023-04-21T06:04:39.907Z,66.74
2023-04-21T06:07:13.397Z,64.09
2023-04-21T06:09:41.169Z,63.17
2023-04-21T06:12:07.996Z,62.52
2023-04-21T06:14:34.699Z,60.50
2023-04-21T06:17:01.340Z,57.39
2023-04-21T06:19:28.121Z,53.07
2023-04-21T06:21:56.893Z,48.89
2023-04-21T06:24:25.211Z,48.86
2023-04-21T06:26:53.604Z,45.46
2023-04-21T06:29:20.907Z,45.16
2023-04-21T06:31:48.042Z,46.82
2023-04-21T06:34:15.198Z,46.44
2023-04-21T06:36:41.986Z,46.19
2023-04-21T06:39:08.740Z,48.70
2023-04-21T06:41:35.465Z,49.09
2023-04-21T06:44:02.358Z,48.84
2023-04-21T06:46:29.180Z,50.08
2023-04-21T06:48:55.968Z,50.52
2023-04-21T06:51:22.694Z,50.66
2023-04-21T06:53:50.020Z,49.96
2023-04-21T06:56:16.779Z,49.04
2023-04-21T06:58:43.574Z,49.91
2023-04-21T07:01:10.393Z,47.72
2023-04-21T07:03:37.328Z,47.89
2023-04-21T07:06:04.363Z,48.15
2023-04-21T07:08:31.201Z,49.74
2023-04-21T07:10:57.951Z,50.18
2023-04-21T07:13:24.946Z,49.76
2023-04-21T07:15:52.031Z,50.35
2023-04-21T07:18:18.898Z,49.89
2023-04-21T07:20:46.249Z,51.11
2023-04-21T07:23:13.125Z,50.68
2023-04-21T07:25:39.867Z,51.79
2023-04-21T07:28:06.772Z,51.87
2023-04-21T07:30:33.532Z,51.94
2023-04-21T07:33:00.782Z,52.98
2023-04-21T07:35:27.955Z,51.13
2023-04-21T07:37:54.788Z,51.20
2023-04-21T07:40:21.778Z,51.95
2023-04-21T07:42:48.607Z,52.63
2023-04-21T07:45:15.642Z,52.53
2023-04-21T07:47:42.415Z,50.14
2023-04-21T07:50:09.979Z,50.91
2023-04-21T07:52:36.763Z,53.19
2023-04-21T07:55:03.892Z,51.62
2023-04-21T07:57:33.832Z,50.25
2023-04-21T08:00:01.039Z,51.28
2023-04-21T08:02:27.936Z,50.99
2023-04-21T08:04:54.981Z,51.69
2023-04-21T08:07:21.808Z,50.94
2023-04-21T08:09:48.669Z,50.12
2023-04-21T08:12:15.485Z,51.25
2023-04-21T08:14:42.564Z,49.84
2023-04-21T08:17:09.422Z,49.79
2023-04-21T08:19:36.388Z,49.50
2023-04-21T08:22:03.262Z,48.97
2023-04-21T08:24:30.507Z,49.82
2023-04-21T08:26:57.787Z,49.09
2023-04-21T08:29:24.699Z,49.31
2023-04-21T08:31:51.466Z,48.93
2023-04-21T08:36:47.538Z,48.53
2023-04-21T08:39:16.597Z,48.87
2023-04-21T08:41:43.484Z,49.49
2023-04-21T08:44:11.683Z,49.88
2023-04-21T08:46:39.864Z,49.02
2023-04-21T08:49:08.366Z,48.56
2023-04-21T08:51:35.810Z,47.76
2023-04-21T08:54:02.681Z,47.92
2023-04-21T08:56:29.681Z,46.52
2023-04-21T08:58:56.397Z,46.73
2023-04-21T09:01:23.384Z,45.53
2023-04-21T09:03:50.305Z,45.28
2023-04-21T09:06:17.507Z,43.19
2023-04-21T09:08:53.737Z,42.52
2023-04-21T09:11:20.587Z,42.32
2023-04-21T09:13:47.306Z,41.64
2023-04-21T09:16:22.214Z,40.60
2023-04-21T09:18:50.092Z,39.20
2023-04-21T09:21:18.810Z,39.55
2023-04-21T09:23:51.423Z,39.49
2023-04-21T09:26:20.238Z,39.16
2023-04-21T09:28:48.608Z,37.50
2023-04-21T09:31:18.423Z,37.28
2023-04-21T09:33:57.066Z,36.59
2023-04-21T09:36:28.076Z,36.47
2023-04-21T09:39:17.313Z,34.60
2023-04-21T09:41:43.488Z,35.20
2023-04-21T09:44:10.374Z,34.13
2023-04-21T09:46:37.742Z,34.57
2023-04-21T09:49:05.842Z,34.07
2023-04-21T09:52:02.137Z,33.80
2023-04-21T09:54:29.588Z,32.42
2023-04-21T09:57:03.500Z,32.65
2023-04-21T09:59:35.320Z,33.22
2023-04-21T10:02:05.962Z,33.09
2023-04-21T10:04:34.603Z,31.67
2023-04-21T10:07:02.110Z,31.29
2023-04-21T10:09:36.944Z,31.16
2023-04-21T10:12:05.852Z,31.51
2023-04-21T10:14:33.845Z,30.20
2023-04-21T10:17:05.055Z,29.78
2023-04-21T10:19:36.392Z,30.54
2023-04-21T10:22:03.202Z,29.42
2023-04-21T10:24:31.053Z,30.25
2023-04-21T10:27:02.104Z,31.02
2023-04-21T10:29:47.893Z,28.88
2023-04-21T10:33:02.884Z,28.71
2023-04-21T10:36:00.359Z,30.22
2023-04-21T10:38:43.748Z,29.50
2023-04-21T10:41:30.458Z,27.29
2023-04-21T10:44:01.760Z,27.14
2023-04-21T10:46:47.620Z,28.19
2023-04-21T10:49:30.135Z,28.97
2023-04-21T10:52:00.633Z,27.58
2023-04-21T10:54:34.002Z,27.72
2023-04-21T10:57:01.547Z,27.47
2023-04-21T10:59:28.327Z,27.96
2023-04-21T11:01:55.915Z,27.07
2023-04-21T11:04:23.922Z,26.81
2023-04-21T11:07:18.934Z,26.71
2023-04-21T11:09:47.896Z,26.53
2023-04-21T11:12:18.165Z,26.85
2023-04-21T11:14:49.430Z,26.46
2023-04-21T11:17:17.984Z,24.62
2023-04-21T11:19:54.378Z,25.59
2023-04-21T11:22:23.276Z,24.85
2023-04-21T11:24:55.716Z,25.26
2023-04-21T11:27:23.401Z,24.33
2023-04-21T11:29:51.124Z,25.77
2023-04-21T11:32:18.514Z,25.08
2023-04-21T11:34:45.880Z,26.09
2023-04-21T11:37:26.862Z,25.08
2023-04-21T11:40:01.009Z,25.51
2023-04-21T11:42:28.878Z,25.38
2023-04-21T11:44:57.147Z,25.04
2023-04-21T11:47:28.523Z,25.40
2023-04-21T11:49:56.854Z,25.91
2023-04-21T11:52:24.834Z,24.65
2023-04-21T11:55:05.128Z,25.43
2023-04-21T11:57:33.467Z,25.14
2023-04-21T12:00:01.911Z,25.04
2023-04-21T12:02:31.260Z,25.33
2023-04-21T12:05:18.489Z,26.19
2023-04-21T12:07:47.965Z,24.30
2023-04-21T12:10:17.520Z,24.25
2023-04-21T12:12:44.634Z,24.33
2023-04-21T12:15:12.785Z,25.17
2023-04-21T12:17:44.364Z,24.89
2023-04-21T12:20:12.011Z,26.10
2023-04-21T12:22:38.752Z,25.11
2023-04-21T12:25:06.112Z,25.12
2023-04-21T12:27:33.149Z,25.16
2023-04-21T12:30:00.304Z,25.19
2023-04-21T12:32:27.314Z,23.72
2023-04-21T12:34:54.026Z,24.27
2023-04-21T12:37:21.069Z,23.96
2023-04-21T12:39:47.886Z,24.57
2023-04-21T12:42:14.606Z,24.73
2023-04-21T12:44:41.525Z,24.72
2023-04-21T12:47:08.384Z,25.27
2023-04-21T12:49:35.375Z,24.80
2023-04-21T12:52:02.222Z,25.56
2023-04-21T12:54:29.052Z,25.16
2023-04-21T12:56:55.960Z,24.69
2023-04-21T12:59:23.386Z,24.68
2023-04-21T13:01:50.906Z,22.98
2023-04-21T13:04:18.193Z,23.34
2023-04-21T13:06:45.579Z,23.00
2023-04-21T13:09:12.450Z,24.17
2023-04-21T13:11:39.819Z,23.67
2023-04-21T13:14:07.496Z,23.85
2023-04-21T13:16:34.422Z,23.90
2023-04-21T13:19:01.213Z,24.01
2023-04-21T13:21:27.997Z,23.08
2023-04-21T13:23:56.183Z,23.40
2023-04-21T13:26:23.125Z,22.88
2023-04-21T13:28:50.482Z,22.83
2023-04-21T13:31:17.326Z,23.13
2023-04-21T13:33:44.366Z,23.84
2023-04-21T13:36:13.226Z,23.91
2023-04-21T13:38:43.083Z,23.10
2023-04-21T13:41:09.864Z,23.75
2023-04-21T13:43:36.763Z,23.82
2023-04-21T13:46:03.769Z,24.10
2023-04-21T13:48:30.762Z,23.94
2023-04-21T13:50:57.538Z,24.47
2023-04-21T13:53:24.362Z,24.63
2023-04-21T13:55:51.212Z,23.62
2023-04-21T13:58:18.144Z,24.21
2023-04-21T14:00:44.949Z,23.88
2023-04-21T14:03:12.055Z,23.89
2023-04-21T14:05:39.276Z,24.86
2023-04-21T14:08:06.390Z,23.04
2023-04-21T14:10:33.837Z,24.20
2023-04-21T14:13:00.788Z,25.43
2023-04-21T14:15:27.712Z,24.46
2023-04-21T14:17:54.955Z,24.04
2023-04-21T14:20:22.424Z,24.30
2023-04-21T14:22:49.147Z,24.59
2023-04-21T14:25:16.116Z,24.36
2023-04-21T14:27:43.087Z,24.22
2023-04-21T14:30:10.606Z,24.43
2023-04-21T14:32:37.905Z,24.35
2023-04-21T14:35:05.601Z,24.71
2023-04-21T14:37:33.183Z,24.47
2023-04-21T14:40:00.100Z,25.15
2023-04-21T14:42:26.948Z,25.64
2023-04-21T14:44:54.072Z,26.20
2023-04-21T14:47:21.644Z,26.93
2023-04-21T14:49:53.945Z,26.89
2023-04-21T14:52:24.806Z,26.26
2023-04-21T14:54:51.769Z,26.41
2023-04-21T14:57:21.016Z,25.85
2023-04-21T14:59:52.829Z,26.40
2023-04-21T15:02:21.483Z,26.87
2023-04-21T15:04:49.080Z,27.04
2023-04-21T15:07:19.816Z,25.75
2023-04-21T15:09:50.860Z,26.59
2023-04-21T15:12:17.723Z,25.36
2023-04-21T15:14:44.597Z,25.07
2023-04-21T15:17:11.810Z,24.90
2023-04-21T15:19:38.589Z,25.23
2023-04-21T15:22:05.587Z,25.01
2023-04-21T15:24:32.690Z,24.94
2023-04-21T15:27:00.086Z,24.46
2023-04-21T15:29:27.013Z,24.39
2023-04-21T15:31:54.516Z,23.88
2023-04-21T15:34:21.243Z,24.92
2023-04-21T15:36:48.076Z,24.38
2023-04-21T15:39:14.980Z,25.47
2023-04-21T15:41:41.872Z,25.56
2023-04-21T15:44:08.709Z,25.57
2023-04-21T15:46:35.473Z,26.07
2023-04-21T15:49:02.526Z,26.33
2023-04-21T15:51:29.331Z,27.38
2023-04-21T15:53:56.088Z,26.61
2023-04-21T15:56:22.825Z,25.81
2023-04-21T15:58:49.574Z,25.81
2023-04-21T16:01:17.043Z,26.14
2023-04-21T16:03:44.212Z,26.42
2023-04-21T16:06:11.612Z,26.85
2023-04-21T16:08:38.621Z,26.98
2023-04-21T16:11:06.135Z,27.23
2023-04-21T16:13:34.199Z,28.09
2023-04-21T16:16:01.266Z,28.52
2023-04-21T16:18:28.058Z,29.28
2023-04-21T16:20:54.974Z,28.16
2023-04-21T16:23:21.924Z,29.19
2023-04-21T16:25:48.748Z,28.92
2023-04-21T16:28:15.994Z,29.34
2023-04-21T16:30:43.817Z,28.58
2023-04-21T16:33:11.529Z,27.68
2023-04-21T16:35:39.341Z,28.03
2023-04-21T16:38:06.581Z,27.27
2023-04-21T16:40:33.865Z,28.92
2023-04-21T16:43:00.951Z,28.92
2023-04-21T16:45:29.001Z,28.94
2023-04-21T16:47:56.562Z,28.62
2023-04-21T16:50:23.895Z,29.88
2023-04-21T16:52:50.930Z,30.61
2023-04-21T16:55:17.964Z,30.88
2023-04-21T16:57:44.948Z,32.13
2023-04-21T17:00:12.582Z,31.85
2023-04-21T17:02:39.537Z,32.70
2023-04-21T17:05:06.621Z,32.77
2023-04-21T17:07:34.463Z,32.50
2023-04-21T17:10:01.864Z,32.40
2023-04-21T17:12:28.717Z,32.19
2023-04-21T17:14:55.390Z,32.41
2023-04-21T17:17:22.434Z,32.05
2023-04-21T17:19:49.644Z,32.15
2023-04-21T17:22:16.721Z,31.93
2023-04-21T17:24:52.334Z,32.03
2023-04-21T17:27:19.900Z,32.12
2023-04-21T17:29:46.987Z,32.51
2023-04-21T17:32:14.372Z,32.77
2023-04-21T17:34:41.338Z,33.59
2023-04-21T17:37:08.329Z,33.73
2023-04-21T17:39:35.393Z,33.59
2023-04-21T17:42:02.897Z,34.00
2023-04-21T17:44:30.035Z,34.81
2023-04-21T17:46:58.178Z,34.32
2023-04-21T17:49:25.645Z,35.48
2023-04-21T17:51:53.077Z,35.60
2023-04-21T17:54:20.127Z,36.67
2023-04-21T17:56:47.053Z,37.20
2023-04-21T17:59:13.996Z,37.73
2023-04-21T18:01:40.997Z,38.53
2023-04-21T18:04:08.316Z,38.66
2023-04-21T18:06:35.978Z,39.85
2023-04-21T18:09:04.880Z,40.48
2023-04-21T18:11:31.746Z,40.93
2023-04-21T18:13:58.825Z,41.12
2023-04-21T18:16:26.305Z,41.48
2023-04-21T18:18:53.115Z,42.13
2023-04-21T18:21:19.830Z,41.92
2023-04-21T18:23:46.667Z,42.46
2023-04-21T18:26:13.588Z,42.90
2023-04-21T18:28:40.366Z,42.42
2023-04-21T18:31:07.236Z,42.61
2023-04-21T18:33:34.560Z,42.81
2023-04-21T18:36:01.411Z,43.61
2023-04-21T18:38:28.146Z,43.54
2023-04-21T18:40:55.554Z,43.88
2023-04-21T18:43:22.692Z,42.72
2023-04-21T18:45:49.446Z,43.26
2023-04-21T18:48:16.131Z,42.93
2023-04-21T18:50:43.023Z,43.29
2023-04-21T18:53:11.189Z,43.08
2023-04-21T18:55:38.213Z,43.28
2023-04-21T18:58:05.383Z,43.25
2023-04-21T19:00:32.889Z,43.38
2023-04-21T19:03:01.221Z,43.77
2023-04-21T19:05:30.483Z,43.63
2023-04-21T19:07:58.082Z,44.68
2023-04-21T19:10:24.966Z,44.39
2023-04-21T19:12:51.899Z,44.80
2023-04-21T19:15:19.956Z,45.02
2023-04-21T19:17:47.122Z,45.22
2023-04-21T19:20:14.338Z,45.55
2023-04-21T19:22:41.724Z,45.82
2023-04-21T19:25:08.952Z,46.91
2023-04-21T19:27:36.110Z,46.44
2023-04-21T19:30:03.659Z,46.91
2023-04-21T19:32:30.779Z,47.33
2023-04-21T19:34:57.757Z,47.12
2023-04-21T19:37:26.386Z,47.49
2023-04-21T19:39:53.291Z,47.38
2023-04-21T19:42:20.301Z,47.24
2023-04-21T19:44:47.089Z,47.17
2023-04-21T19:47:14.059Z,47.57
2023-04-21T19:49:40.938Z,47.95
2023-04-21T19:52:07.692Z,48.31
2023-04-21T19:54:34.456Z,48.61
2023-04-21T19:57:01.704Z,49.16
2023-04-21T19:59:28.657Z,49.00
2023-04-21T20:01:55.529Z,49.27
2023-04-21T20:04:22.704Z,49.54
2023-04-21T20:06:49.589Z,50.21
2023-04-21T20:09:16.765Z,50.09
2023-04-21T20:11:43.701Z,50.51
2023-04-21T20:14:10.724Z,51.60
2023-04-21T20:16:37.740Z,52.05
2023-04-21T20:19:04.872Z,52.94
2023-04-21T20:21:32.398Z,53.29
2023-04-21T20:23:59.211Z,54.42
2023-04-21T20:26:26.036Z,55.82
2023-04-21T20:28:53.012Z,56.10
2023-04-21T20:31:23.504Z,57.11
2023-04-21T20:33:50.504Z,57.79
2023-04-21T20:36:18.543Z,58.44
2023-04-21T20:38:49.555Z,59.21
2023-04-21T20:41:16.562Z,60.32
2023-04-21T20:43:45.644Z,61.11
2023-04-21T20:46:13.732Z,61.27
2023-04-21T20:48:40.767Z,62.08
2023-04-21T20:51:08.145Z,62.53
2023-04-21T20:53:34.996Z,64.76
2023-04-21T20:56:02.333Z,64.88
2023-04-21T20:58:29.007Z,66.66
2023-04-21T21:00:56.332Z,67.21
2023-04-21T21:03:23.355Z,67.31
2023-04-21T21:05:50.780Z,68.94
2023-04-21T21:08:17.698Z,69.34
2023-04-21T21:10:44.710Z,70.40
2023-04-21T21:13:11.466Z,71.28
2023-04-21T21:15:38.407Z,72.29
2023-04-21T21:18:05.228Z,72.61
2023-04-21T21:20:32.050Z,72.50
2023-04-21T21:22:58.878Z,74.15
2023-04-21T21:25:25.750Z,74.66
2023-04-21T21:27:52.559Z,74.99
2023-04-21T21:30:19.471Z,75.41
2023-04-21T21:32:47.634Z,75.21
2023-04-21T21:35:14.607Z,75.50
2023-04-21T21:37:41.568Z,75.86
2023-04-21T21:40:09.360Z,76.24
2023-04-21T21:42:37.463Z,76.30
2023-04-21T21:45:04.933Z,76.41
2023-04-21T21:47:35.509Z,76.92
2023-04-21T21:50:04.660Z,77.24
2023-04-21T21:52:31.390Z,77.18
2023-04-21T21:54:58.484Z,77.25
2023-04-21T21:57:25.751Z,77.47
2023-04-21T21:59:52.759Z,77.24
2023-04-21T22:02:19.662Z,78.30
2023-04-21T22:04:46.441Z,77.44
2023-04-21T22:07:13.909Z,77.96
2023-04-21T22:09:41.413Z,78.11
2023-04-21T22:12:08.890Z,77.98
2023-04-21T22:14:35.824Z,77.92
2023-04-21T22:17:02.927Z,77.56
2023-04-21T22:19:31.079Z,78.30
2023-04-21T22:21:58.029Z,78.42
2023-04-21T22:24:25.052Z,78.11
2023-04-21T22:26:52.035Z,78.72
2023-04-21T22:29:18.816Z,79.10
2023-04-21T22:31:47.053Z,79.81
2023-04-21T22:34:16.828Z,80.09
2023-04-21T22:36:43.697Z,81.61
2023-04-21T22:39:10.806Z,81.49
2023-04-21T22:41:38.475Z,82.13
2023-04-21T22:44:05.191Z,81.69
2023-04-21T22:46:33.530Z,82.20
2023-04-21T22:49:03.080Z,82.84
2023-04-21T22:51:32.287Z,82.84
2023-04-21T22:54:00.162Z,82.84
2023-04-21T22:56:28.457Z,83.78
2023-04-21T22:58:55.420Z,83.70
2023-04-21T23:01:22.149Z,84.27
2023-04-21T23:03:49.072Z,84.46
2023-04-21T23:06:15.809Z,84.03
2023-04-21T23:08:42.564Z,84.46
2023-04-21T23:11:09.365Z,85.00
2023-04-21T23:13:36.093Z,85.45
2023-04-21T23:16:02.897Z,85.14
2023-04-21T23:18:29.745Z,84.78
2023-04-21T23:20:56.759Z,85.67
2023-04-21T23:23:23.472Z,86.67
2023-04-21T23:25:50.309Z,87.11
2023-04-21T23:28:17.107Z,87.17
2023-04-21T23:30:43.962Z,87.54
2023-04-21T23:33:10.923Z,88.58
2023-04-21T23:35:37.784Z,88.43
2023-04-21T23:38:04.536Z,88.29
2023-04-21T23:40:31.481Z,88.25
2023-04-21T23:42:58.188Z,89.09
2023-04-21T23:45:24.880Z,88.03
2023-04-21T23:47:51.740Z,88.66
2023-04-21T23:50:18.639Z,88.88
2023-04-21T23:52:45.597Z,88.74
2023-04-21T23:55:12.637Z,88.87
2023-04-21T23:57:39.831Z,88.73
